createdAt,value
2017-03-30T00:00:21.570Z,15.21
2017-03-30T00:01:21.590Z,15.21
2017-03-30T00:02:21.633Z,15.22
2017-03-30T00:03:21.607Z,15.21
2017-03-30T00:04:21.643Z,15.24
2017-03-30T00:05:24.790Z,15.19
2017-03-30T00:06:21.696Z,15.21
2017-03-30T00:07:21.681Z,15.18
2017-03-30T00:08:21.422Z,15.1
2017-03-30T00:09:21.748Z,15.17
2017-03-30T00:10:21.746Z,15.15
2017-03-30T00:11:21.770Z,15.21
2017-03-30T00:12:21.473Z,15.14
2017-03-30T00:13:21.803Z,15.18
2017-03-30T00:14:21.519Z,15.11
2017-03-30T00:15:21.841Z,15.14
2017-03-30T00:16:21.864Z,15.17
2017-03-30T00:17:21.886Z,15.19
2017-03-30T00:18:21.912Z,15.09
2017-03-30T00:19:21.923Z,15.17
2017-03-30T00:20:21.946Z,15.09
2017-03-30T00:21:21.961Z,15.07
2017-03-30T00:22:21.975Z,15.17
2017-03-30T00:23:22.033Z,15.14
2017-03-30T00:24:22.013Z,15.11
2017-03-30T00:25:22.038Z,15.15
2017-03-30T00:26:22.056Z,15.09
2017-03-30T00:27:22.072Z,15.19
2017-03-30T00:28:22.086Z,15.1
2017-03-30T00:29:22.113Z,15.11
2017-03-30T00:30:22.130Z,15.17
2017-03-30T00:31:22.162Z,15.04
2017-03-30T00:32:22.168Z,15.07
2017-03-30T00:33:22.190Z,15.07
2017-03-30T00:34:22.199Z,15.03
2017-03-30T00:35:22.228Z,15.11
2017-03-30T00:36:22.247Z,15.03
2017-03-30T00:37:22.263Z,15.03
2017-03-30T00:38:22.281Z,15.04
2017-03-30T00:39:21.993Z,15.06
2017-03-30T00:40:22.320Z,15
2017-03-30T00:41:22.345Z,15.03
2017-03-30T00:42:22.358Z,15.04
2017-03-30T00:43:22.376Z,15.07
2017-03-30T00:44:22.089Z,15.07
2017-03-30T00:45:22.415Z,15.07
2017-03-30T00:46:22.449Z,15.03
2017-03-30T00:47:22.149Z,15
2017-03-30T00:48:22.482Z,15.02
2017-03-30T00:49:22.492Z,15.02
2017-03-30T00:50:22.518Z,15.06
2017-03-30T00:51:22.530Z,14.97
2017-03-30T00:52:22.240Z,14.94
2017-03-30T00:53:22.571Z,15.03
2017-03-30T00:54:22.592Z,15.02
2017-03-30T00:55:22.630Z,14.97
2017-03-30T00:56:22.318Z,15
2017-03-30T00:57:22.673Z,14.97
2017-03-30T00:58:22.671Z,14.97
2017-03-30T00:59:22.691Z,14.97
2017-03-30T01:00:22.703Z,14.92
2017-03-30T01:01:22.435Z,14.99
2017-03-30T01:02:22.755Z,15
2017-03-30T01:03:22.764Z,15
2017-03-30T01:04:22.783Z,14.97
2017-03-30T01:05:22.817Z,14.99
2017-03-30T01:06:22.826Z,14.96
2017-03-30T01:07:22.566Z,14.89
2017-03-30T01:08:22.552Z,14.94
2017-03-30T01:09:22.880Z,14.97
2017-03-30T01:10:22.956Z,14.94
2017-03-30T01:11:22.922Z,14.94
2017-03-30T01:12:22.630Z,14.91
2017-03-30T01:13:22.956Z,14.96
2017-03-30T01:14:22.973Z,14.94
2017-03-30T01:15:22.682Z,14.85
2017-03-30T01:16:23.017Z,14.94
2017-03-30T01:17:23.037Z,14.92
2017-03-30T01:18:22.426Z,14.96
2017-03-30T01:19:22.763Z,14.96
2017-03-30T01:20:23.097Z,14.96
2017-03-30T01:21:23.115Z,14.86
2017-03-30T01:22:23.134Z,14.91
2017-03-30T01:23:23.152Z,14.96
2017-03-30T01:24:23.177Z,14.97
2017-03-30T01:25:23.190Z,14.85
2017-03-30T01:26:23.241Z,14.82
2017-03-30T01:27:23.235Z,14.89
2017-03-30T01:28:23.246Z,14.85
2017-03-30T01:29:23.272Z,14.88
2017-03-30T01:30:22.985Z,14.81
2017-03-30T01:31:23.312Z,14.86
2017-03-30T01:32:23.491Z,14.86
2017-03-30T01:33:23.348Z,14.86
2017-03-30T01:34:23.372Z,14.84
2017-03-30T01:35:23.068Z,14.84
2017-03-30T01:36:23.090Z,14.82
2017-03-30T01:37:23.424Z,14.82
2017-03-30T01:38:23.126Z,14.79
2017-03-30T01:39:23.473Z,14.78
2017-03-30T01:40:23.163Z,14.86
2017-03-30T01:41:23.498Z,14.84
2017-03-30T01:42:23.517Z,14.84
2017-03-30T01:43:23.532Z,14.72
2017-03-30T01:44:23.556Z,14.77
2017-03-30T01:45:23.574Z,14.86
2017-03-30T01:46:23.592Z,14.84
2017-03-30T01:47:23.622Z,14.86
2017-03-30T01:48:23.004Z,14.82
2017-03-30T01:49:23.023Z,14.84
2017-03-30T01:50:23.679Z,14.77
2017-03-30T01:51:23.369Z,14.78
2017-03-30T01:52:23.397Z,14.79
2017-03-30T01:53:23.728Z,14.82
2017-03-30T01:54:23.866Z,14.79
2017-03-30T01:55:23.762Z,14.79
2017-03-30T01:56:23.780Z,14.82
2017-03-30T01:57:23.485Z,14.81
2017-03-30T01:58:23.813Z,14.77
2017-03-30T01:59:23.837Z,14.81
2017-03-30T02:00:23.858Z,14.78
2017-03-30T02:01:23.877Z,14.81
2017-03-30T02:02:23.898Z,14.79
2017-03-30T02:03:23.922Z,14.79
2017-03-30T02:04:23.935Z,14.79
2017-03-30T02:05:23.953Z,14.78
2017-03-30T02:06:23.967Z,14.78
2017-03-30T02:07:23.994Z,14.85
2017-03-30T02:08:24.008Z,14.77
2017-03-30T02:09:23.713Z,14.73
2017-03-30T02:10:24.051Z,14.69
2017-03-30T02:11:24.064Z,14.79
2017-03-30T02:12:24.086Z,14.79
2017-03-30T02:13:24.100Z,14.72
2017-03-30T02:14:24.122Z,14.73
2017-03-30T02:15:24.142Z,14.78
2017-03-30T02:16:24.165Z,14.79
2017-03-30T02:17:23.908Z,14.68
2017-03-30T02:18:24.200Z,14.79
2017-03-30T02:19:24.238Z,14.78
2017-03-30T02:20:24.234Z,14.7
2017-03-30T02:21:24.261Z,14.73
2017-03-30T02:22:24.275Z,14.77
2017-03-30T02:23:24.294Z,14.7
2017-03-30T02:24:24.313Z,14.72
2017-03-30T02:25:24.333Z,14.73
2017-03-30T02:26:24.349Z,14.77
2017-03-30T02:27:24.370Z,14.69
2017-03-30T02:28:24.391Z,14.77
2017-03-30T02:29:24.408Z,14.69
2017-03-30T02:30:24.446Z,14.72
2017-03-30T02:31:24.447Z,14.68
2017-03-30T02:32:24.463Z,14.7
2017-03-30T02:33:24.485Z,14.66
2017-03-30T02:34:24.507Z,14.77
2017-03-30T02:35:24.215Z,14.73
2017-03-30T02:36:24.543Z,14.69
2017-03-30T02:37:24.561Z,14.65
2017-03-30T02:38:24.576Z,14.77
2017-03-30T02:39:24.594Z,14.69
2017-03-30T02:40:24.616Z,14.72
2017-03-30T02:41:24.641Z,14.77
2017-03-30T02:42:24.657Z,14.78
2017-03-30T02:43:24.671Z,14.72
2017-03-30T02:44:24.692Z,14.69
2017-03-30T02:45:24.711Z,14.72
2017-03-30T02:46:24.418Z,14.72
2017-03-30T02:47:24.437Z,14.73
2017-03-30T02:48:24.452Z,14.77
2017-03-30T02:49:24.786Z,14.69
2017-03-30T02:50:24.809Z,14.69
2017-03-30T02:51:24.832Z,14.72
2017-03-30T02:52:24.845Z,14.7
2017-03-30T02:53:24.549Z,14.77
2017-03-30T02:54:24.572Z,14.66
2017-03-30T02:55:24.902Z,14.72
2017-03-30T02:56:24.920Z,14.72
2017-03-30T02:57:24.939Z,14.72
2017-03-30T02:58:24.959Z,14.78
2017-03-30T02:59:25.006Z,14.72
2017-03-30T03:00:24.370Z,14.7
2017-03-30T03:01:24.712Z,14.68
2017-03-30T03:02:24.718Z,14.69
2017-03-30T03:03:25.057Z,14.68
2017-03-30T03:04:24.760Z,14.69
2017-03-30T03:05:25.091Z,14.68
2017-03-30T03:06:24.804Z,14.68
2017-03-30T03:07:25.132Z,14.65
2017-03-30T03:08:25.144Z,14.65
2017-03-30T03:09:24.854Z,14.63
2017-03-30T03:10:24.872Z,14.66
2017-03-30T03:11:25.210Z,14.68
2017-03-30T03:12:25.221Z,14.6
2017-03-30T03:13:24.930Z,14.68
2017-03-30T03:14:25.265Z,14.69
2017-03-30T03:15:24.965Z,14.68
2017-03-30T03:16:25.303Z,14.68
2017-03-30T03:17:25.320Z,14.6
2017-03-30T03:18:25.458Z,14.66
2017-03-30T03:19:25.391Z,14.7
2017-03-30T03:20:25.400Z,14.63
2017-03-30T03:21:25.081Z,14.65
2017-03-30T03:22:25.410Z,14.6
2017-03-30T03:23:25.428Z,14.62
2017-03-30T03:24:25.562Z,14.66
2017-03-30T03:25:25.570Z,14.65
2017-03-30T03:26:25.579Z,14.69
2017-03-30T03:27:25.602Z,14.7
2017-03-30T03:28:25.212Z,14.69
2017-03-30T03:29:25.618Z,14.65
2017-03-30T03:30:25.628Z,14.55
2017-03-30T03:31:25.637Z,14.54
2017-03-30T03:32:25.676Z,14.62
2017-03-30T03:33:25.685Z,14.68
2017-03-30T03:34:25.684Z,14.66
2017-03-30T03:35:25.693Z,14.65
2017-03-30T03:36:25.702Z,14.58
2017-03-30T03:37:25.783Z,14.58
2017-03-30T03:38:25.723Z,14.51
2017-03-30T03:39:25.418Z,14.58
2017-03-30T03:40:25.761Z,14.62
2017-03-30T03:41:25.767Z,14.58
2017-03-30T03:42:25.791Z,14.53
2017-03-30T03:43:25.807Z,14.48
2017-03-30T03:44:25.824Z,14.53
2017-03-30T03:45:25.853Z,14.47
2017-03-30T03:46:25.868Z,14.51
2017-03-30T03:47:25.673Z,14.58
2017-03-30T03:48:25.901Z,14.48
2017-03-30T03:49:25.918Z,14.47
2017-03-30T03:50:25.698Z,14.48
2017-03-30T03:51:25.964Z,14.55
2017-03-30T03:52:25.977Z,14.51
2017-03-30T03:53:25.996Z,14.53
2017-03-30T03:54:26.015Z,14.48
2017-03-30T03:55:26.032Z,14.53
2017-03-30T03:56:26.053Z,14.53
2017-03-30T03:57:25.760Z,14.45
2017-03-30T03:58:26.094Z,14.5
2017-03-30T03:59:25.794Z,14.54
2017-03-30T04:00:25.814Z,14.53
2017-03-30T04:01:26.146Z,14.54
2017-03-30T04:02:26.267Z,14.51
2017-03-30T04:03:26.193Z,14.51
2017-03-30T04:04:26.206Z,14.5
2017-03-30T04:05:26.222Z,14.53
2017-03-30T04:06:26.244Z,14.51
2017-03-30T04:07:25.944Z,14.51
2017-03-30T04:08:26.283Z,14.51
2017-03-30T04:09:26.296Z,14.48
2017-03-30T04:10:26.320Z,14.5
2017-03-30T04:11:26.340Z,14.54
2017-03-30T04:12:26.352Z,14.51
2017-03-30T04:13:26.389Z,14.55
2017-03-30T04:14:26.391Z,14.5
2017-03-30T04:15:26.411Z,14.51
2017-03-30T04:16:26.430Z,14.51
2017-03-30T04:17:26.448Z,14.48
2017-03-30T04:18:26.466Z,14.5
2017-03-30T04:19:26.489Z,14.5
2017-03-30T04:20:26.506Z,14.44
2017-03-30T04:21:26.534Z,14.5
2017-03-30T04:22:26.576Z,14.5
2017-03-30T04:23:26.566Z,14.51
2017-03-30T04:24:26.579Z,14.41
2017-03-30T04:25:26.297Z,14.41
2017-03-30T04:26:26.313Z,14.5
2017-03-30T04:27:26.644Z,14.47
2017-03-30T04:28:26.352Z,14.4
2017-03-30T04:29:26.366Z,14.4
2017-03-30T04:30:26.723Z,14.43
2017-03-30T04:31:26.405Z,14.41
2017-03-30T04:32:26.424Z,14.41
2017-03-30T04:33:26.442Z,14.45
2017-03-30T04:34:26.773Z,14.4
2017-03-30T04:35:26.793Z,14.45
2017-03-30T04:36:26.807Z,14.43
2017-03-30T04:37:26.835Z,14.41
2017-03-30T04:38:26.534Z,14.45
2017-03-30T04:39:26.890Z,14.48
2017-03-30T04:40:26.572Z,14.43
2017-03-30T04:41:26.901Z,14.44
2017-03-30T04:42:26.930Z,14.4
2017-03-30T04:43:26.949Z,14.37
2017-03-30T04:44:27.103Z,14.4
2017-03-30T04:45:26.976Z,14.36
2017-03-30T04:46:26.999Z,14.4
2017-03-30T04:47:27.017Z,14.35
2017-03-30T04:48:27.033Z,14.33
2017-03-30T04:49:27.059Z,14.37
2017-03-30T04:50:27.070Z,14.35
2017-03-30T04:51:27.086Z,14.36
2017-03-30T04:52:27.110Z,14.32
2017-03-30T04:53:27.130Z,14.36
2017-03-30T04:54:27.194Z,14.32
2017-03-30T04:55:27.188Z,14.33
2017-03-30T04:56:27.223Z,14.33
2017-03-30T04:57:27.213Z,14.3
2017-03-30T04:58:27.396Z,14.33
2017-03-30T04:59:27.551Z,14.33
2017-03-30T05:00:27.400Z,14.36
2017-03-30T05:01:27.278Z,14.37
2017-03-30T05:02:27.386Z,14.3
2017-03-30T05:03:27.416Z,14.33
2017-03-30T05:04:27.388Z,14.33
2017-03-30T05:05:27.435Z,14.35
2017-03-30T05:06:27.415Z,14.32
2017-03-30T05:07:27.425Z,14.33
2017-03-30T05:08:27.410Z,14.33
2017-03-30T05:09:27.480Z,14.35
2017-03-30T05:10:27.133Z,14.37
2017-03-30T05:11:27.497Z,14.3
2017-03-30T05:12:27.497Z,14.35
2017-03-30T05:13:27.612Z,14.36
2017-03-30T05:14:27.620Z,14.37
2017-03-30T05:15:27.629Z,14.36
2017-03-30T05:16:27.662Z,14.37
2017-03-30T05:17:27.270Z,14.3
2017-03-30T05:18:27.312Z,14.35
2017-03-30T05:19:27.678Z,14.3
2017-03-30T05:20:27.662Z,14.35
2017-03-30T05:21:27.603Z,14.3
2017-03-30T05:22:27.725Z,14.35
2017-03-30T05:23:27.786Z,14.37
2017-03-30T05:24:27.708Z,14.41
2017-03-30T05:25:27.827Z,14.37
2017-03-30T05:26:27.741Z,14.35
2017-03-30T05:27:27.640Z,14.37
2017-03-30T05:28:27.792Z,14.37
2017-03-30T05:29:27.800Z,14.32
2017-03-30T05:30:27.817Z,14.29
2017-03-30T05:31:27.831Z,14.35
2017-03-30T05:32:27.851Z,14.35
2017-03-30T05:33:27.873Z,14.36
2017-03-30T05:34:27.891Z,14.32
2017-03-30T05:35:27.963Z,14.36
2017-03-30T05:36:27.927Z,14.35
2017-03-30T05:37:27.949Z,14.47
2017-03-30T05:38:27.963Z,14.45
2017-03-30T05:39:27.673Z,14.36
2017-03-30T05:40:28.003Z,14.35
2017-03-30T05:41:28.023Z,14.45
2017-03-30T05:42:28.044Z,14.45
2017-03-30T05:43:28.059Z,14.47
2017-03-30T05:44:28.079Z,14.47
2017-03-30T05:45:28.135Z,14.4
2017-03-30T05:46:27.894Z,14.47
2017-03-30T05:47:28.135Z,14.41
2017-03-30T05:48:28.154Z,14.51
2017-03-30T05:49:28.054Z,14.51
2017-03-30T05:50:28.374Z,14.54
2017-03-30T05:51:28.381Z,14.51
2017-03-30T05:52:28.390Z,14.5
2017-03-30T05:53:28.400Z,14.5
2017-03-30T05:54:28.327Z,14.48
2017-03-30T05:55:28.334Z,14.53
2017-03-30T05:56:27.993Z,14.53
2017-03-30T05:57:28.344Z,14.5
2017-03-30T05:58:28.353Z,14.5
2017-03-30T05:59:28.045Z,14.48
2017-03-30T06:00:28.505Z,14.5
2017-03-30T06:01:28.086Z,14.51
2017-03-30T06:02:28.467Z,14.55
2017-03-30T06:03:28.116Z,14.54
2017-03-30T06:04:28.141Z,14.5
2017-03-30T06:05:28.158Z,14.5
2017-03-30T06:06:28.205Z,14.55
2017-03-30T06:07:28.722Z,14.51
2017-03-30T06:08:28.569Z,14.5
2017-03-30T06:09:28.664Z,14.53
2017-03-30T06:10:28.577Z,14.69
2017-03-30T06:11:28.347Z,14.62
2017-03-30T06:12:28.356Z,14.68
2017-03-30T06:13:28.621Z,14.66
2017-03-30T06:14:28.362Z,14.59
2017-03-30T06:15:28.747Z,14.59
2017-03-30T06:16:33.127Z,14.7
2017-03-30T06:17:28.653Z,14.65
2017-03-30T06:18:28.943Z,14.7
2017-03-30T06:19:30.923Z,14.72
2017-03-30T06:20:30.215Z,14.7
2017-03-30T06:21:28.778Z,14.78
2017-03-30T06:22:28.797Z,14.69
2017-03-30T06:23:28.814Z,14.73
2017-03-30T06:24:28.831Z,14.69
2017-03-30T06:25:28.850Z,14.65
2017-03-30T06:26:28.556Z,14.79
2017-03-30T06:27:28.887Z,14.7
2017-03-30T06:28:28.602Z,14.7
2017-03-30T06:29:28.626Z,14.77
2017-03-30T06:30:28.663Z,14.79
2017-03-30T06:31:28.339Z,14.73
2017-03-30T06:32:28.670Z,14.73
2017-03-30T06:33:28.997Z,14.73
2017-03-30T06:34:28.702Z,14.78
2017-03-30T06:35:28.409Z,14.79
2017-03-30T06:36:29.143Z,14.79
2017-03-30T06:37:29.174Z,14.82
2017-03-30T06:38:29.173Z,14.84
2017-03-30T06:39:29.182Z,14.79
2017-03-30T06:40:29.193Z,14.85
2017-03-30T06:41:28.833Z,14.79
2017-03-30T06:42:29.275Z,14.78
2017-03-30T06:43:29.208Z,14.88
2017-03-30T06:44:29.218Z,14.84
2017-03-30T06:45:29.229Z,14.84
2017-03-30T06:46:29.242Z,14.86
2017-03-30T06:47:29.263Z,14.91
2017-03-30T06:48:29.303Z,14.92
2017-03-30T06:49:29.311Z,14.94
2017-03-30T06:50:29.332Z,14.89
2017-03-30T06:51:29.337Z,15
2017-03-30T06:52:29.356Z,14.97
2017-03-30T06:53:29.454Z,15
2017-03-30T06:54:29.184Z,14.92
2017-03-30T06:55:29.493Z,14.96
2017-03-30T06:56:29.502Z,14.97
2017-03-30T06:57:29.521Z,15.02
2017-03-30T06:58:29.465Z,14.96
2017-03-30T06:59:29.489Z,15.02
2017-03-30T07:00:29.506Z,14.97
2017-03-30T07:01:29.528Z,15.06
2017-03-30T07:02:29.545Z,15.03
2017-03-30T07:03:29.564Z,15.02
2017-03-30T07:04:29.582Z,15.06
2017-03-30T07:05:29.437Z,14.99
2017-03-30T07:06:29.620Z,15.02
2017-03-30T07:07:29.642Z,15.02
2017-03-30T07:08:29.662Z,15.03
2017-03-30T07:09:29.683Z,15.02
2017-03-30T07:10:29.484Z,15.02
2017-03-30T07:11:29.718Z,15.04
2017-03-30T07:12:29.874Z,15.02
2017-03-30T07:13:29.755Z,15.03
2017-03-30T07:14:29.480Z,15.04
2017-03-30T07:15:29.796Z,15.1
2017-03-30T07:16:29.814Z,15.11
2017-03-30T07:17:29.833Z,15.07
2017-03-30T07:18:29.853Z,15.09
2017-03-30T07:19:29.872Z,15.1
2017-03-30T07:20:29.887Z,15.1
2017-03-30T07:21:29.908Z,15.18
2017-03-30T07:22:29.933Z,15.15
2017-03-30T07:23:29.947Z,15.14
2017-03-30T07:24:30.173Z,15.11
2017-03-30T07:25:29.984Z,15.18
2017-03-30T07:26:30.003Z,15.18
2017-03-30T07:27:29.710Z,15.17
2017-03-30T07:28:29.728Z,15.28
2017-03-30T07:29:30.059Z,15.27
2017-03-30T07:30:30.081Z,15.24
2017-03-30T07:31:30.097Z,15.27
2017-03-30T07:32:30.126Z,15.27
2017-03-30T07:33:30.134Z,15.31
2017-03-30T07:34:30.153Z,15.31
2017-03-30T07:35:30.174Z,15.42
2017-03-30T07:36:29.886Z,15.36
2017-03-30T07:37:30.217Z,15.4
2017-03-30T07:38:30.230Z,15.36
2017-03-30T07:39:30.253Z,15.39
2017-03-30T07:40:30.272Z,15.47
2017-03-30T07:41:30.293Z,15.49
2017-03-30T07:42:29.999Z,15.52
2017-03-30T07:43:30.332Z,15.51
2017-03-30T07:44:30.032Z,15.64
2017-03-30T07:45:30.371Z,15.58
2017-03-30T07:46:30.425Z,15.65
2017-03-30T07:47:30.435Z,15.67
2017-03-30T07:48:30.428Z,15.72
2017-03-30T07:49:30.447Z,15.64
2017-03-30T07:50:30.466Z,15.73
2017-03-30T07:51:30.483Z,15.77
2017-03-30T07:52:30.502Z,15.76
2017-03-30T07:53:30.519Z,15.92
2017-03-30T07:54:30.555Z,15.94
2017-03-30T07:55:30.455Z,15.95
2017-03-30T07:56:30.582Z,15.92
2017-03-30T07:57:30.598Z,15.92
2017-03-30T07:58:30.625Z,15.95
2017-03-30T07:59:30.639Z,16.01
2017-03-30T08:00:30.659Z,15.97
2017-03-30T08:01:30.680Z,15.94
2017-03-30T08:02:30.702Z,16.01
2017-03-30T08:03:30.718Z,16.01
2017-03-30T08:04:30.743Z,16.01
2017-03-30T08:05:30.757Z,16.04
2017-03-30T08:06:30.774Z,16.15
2017-03-30T08:07:30.796Z,16.12
2017-03-30T08:08:30.813Z,16.15
2017-03-30T08:09:30.833Z,16.24
2017-03-30T08:10:30.852Z,16.23
2017-03-30T08:11:30.882Z,16.24
2017-03-30T08:12:30.890Z,16.35
2017-03-30T08:13:30.934Z,16.39
2017-03-30T08:14:30.933Z,16.36
2017-03-30T08:15:30.953Z,16.38
2017-03-30T08:16:30.977Z,16.46
2017-03-30T08:17:30.681Z,16.51
2017-03-30T08:18:31.309Z,16.5
2017-03-30T08:19:31.028Z,16.5
2017-03-30T08:20:30.742Z,16.56
2017-03-30T08:21:30.757Z,16.61
2017-03-30T08:22:30.785Z,16.69
2017-03-30T08:23:31.209Z,16.61
2017-03-30T08:24:31.217Z,16.65
2017-03-30T08:25:31.223Z,16.71
2017-03-30T08:26:30.858Z,16.74
2017-03-30T08:27:31.294Z,16.76
2017-03-30T08:28:31.303Z,16.75
2017-03-30T08:29:31.302Z,16.81
2017-03-30T08:30:31.313Z,16.83
2017-03-30T08:31:30.956Z,16.79
2017-03-30T08:32:31.419Z,16.91
2017-03-30T08:33:31.437Z,16.89
2017-03-30T08:34:31.435Z,16.97
2017-03-30T08:35:31.471Z,16.96
2017-03-30T08:36:31.486Z,16.96
2017-03-30T08:37:31.484Z,16.94
2017-03-30T08:38:31.182Z,16.99
2017-03-30T08:39:31.567Z,16.91
2017-03-30T08:40:31.574Z,17.06
2017-03-30T08:41:31.264Z,17.02
2017-03-30T08:42:31.592Z,17.08
2017-03-30T08:43:31.725Z,17.04
2017-03-30T08:44:31.421Z,17.05
2017-03-30T08:45:31.742Z,17.11
2017-03-30T08:46:31.759Z,17.08
2017-03-30T08:47:31.766Z,17.09
2017-03-30T08:48:31.764Z,17.16
2017-03-30T08:49:31.773Z,17.12
2017-03-30T08:50:31.791Z,17.06
2017-03-30T08:51:31.753Z,17.08
2017-03-30T08:52:31.437Z,17.12
2017-03-30T08:53:31.764Z,17.14
2017-03-30T08:54:31.769Z,17.15
2017-03-30T08:55:31.576Z,17.2
2017-03-30T08:56:31.803Z,17.19
2017-03-30T08:57:31.510Z,17.2
2017-03-30T08:58:31.815Z,17.19
2017-03-30T08:59:31.846Z,17.23
2017-03-30T09:00:31.855Z,17.22
2017-03-30T09:01:31.879Z,17.22
2017-03-30T09:02:31.899Z,17.2
2017-03-30T09:03:31.918Z,17.26
2017-03-30T09:04:32.045Z,17.22
2017-03-30T09:05:31.643Z,17.2
2017-03-30T09:06:31.977Z,17.36
2017-03-30T09:07:31.996Z,17.39
2017-03-30T09:08:31.765Z,17.34
2017-03-30T09:09:31.778Z,17.41
2017-03-30T09:10:32.062Z,17.41
2017-03-30T09:11:32.084Z,17.34
2017-03-30T09:12:32.099Z,17.39
2017-03-30T09:13:31.807Z,17.41
2017-03-30T09:14:32.148Z,17.51
2017-03-30T09:15:32.160Z,17.52
2017-03-30T09:16:31.871Z,17.57
2017-03-30T09:17:32.212Z,17.57
2017-03-30T09:18:32.236Z,17.63
2017-03-30T09:19:32.247Z,17.59
2017-03-30T09:20:32.265Z,17.63
2017-03-30T09:21:32.293Z,17.67
2017-03-30T09:22:32.313Z,17.68
2017-03-30T09:23:32.326Z,17.7
2017-03-30T09:24:32.347Z,17.68
2017-03-30T09:25:32.376Z,17.71
2017-03-30T09:26:32.396Z,17.78
2017-03-30T09:27:32.413Z,17.78
2017-03-30T09:28:32.518Z,17.85
2017-03-30T09:29:32.232Z,17.83
2017-03-30T09:30:32.669Z,17.89
2017-03-30T09:31:32.681Z,17.85
2017-03-30T09:32:32.683Z,17.9
2017-03-30T09:33:32.349Z,18
2017-03-30T09:34:32.701Z,18.01
2017-03-30T09:35:32.709Z,18.03
2017-03-30T09:36:32.720Z,18.1
2017-03-30T09:37:32.717Z,18.1
2017-03-30T09:38:32.839Z,18.15
2017-03-30T09:39:32.495Z,18.22
2017-03-30T09:40:32.717Z,18.23
2017-03-30T09:41:32.705Z,18.31
2017-03-30T09:42:32.720Z,18.33
2017-03-30T09:43:32.788Z,18.33
2017-03-30T09:44:32.766Z,18.34
2017-03-30T09:45:32.789Z,18.31
2017-03-30T09:46:32.807Z,18.38
2017-03-30T09:47:32.832Z,18.29
2017-03-30T09:48:32.849Z,18.4
2017-03-30T09:49:32.870Z,18.37
2017-03-30T09:50:32.891Z,18.4
2017-03-30T09:51:32.912Z,18.34
2017-03-30T09:52:32.682Z,18.29
2017-03-30T09:53:32.957Z,18.29
2017-03-30T09:54:32.983Z,18.31
2017-03-30T09:55:33.027Z,18.33
2017-03-30T09:56:33.025Z,18.31
2017-03-30T09:57:33.038Z,18.29
2017-03-30T09:58:33.065Z,18.29
2017-03-30T09:59:33.082Z,18.25
2017-03-30T10:00:33.102Z,18.33
2017-03-30T10:01:33.130Z,18.22
2017-03-30T10:02:33.144Z,18.29
2017-03-30T10:03:33.180Z,18.2
2017-03-30T10:04:33.193Z,18.2
2017-03-30T10:05:33.213Z,18.22
2017-03-30T10:06:33.231Z,18.19
2017-03-30T10:07:33.250Z,18.28
2017-03-30T10:08:33.276Z,18.29
2017-03-30T10:09:33.290Z,18.29
2017-03-30T10:10:33.314Z,18.35
2017-03-30T10:11:33.354Z,18.41
2017-03-30T10:12:33.355Z,18.37
2017-03-30T10:13:33.583Z,18.47
2017-03-30T10:14:33.399Z,18.49
2017-03-30T10:15:33.417Z,18.55
2017-03-30T10:16:33.442Z,18.59
2017-03-30T10:17:33.464Z,18.6
2017-03-30T10:18:33.178Z,18.7
2017-03-30T10:19:33.508Z,18.75
2017-03-30T10:20:33.529Z,18.77
2017-03-30T10:21:33.237Z,18.83
2017-03-30T10:22:33.573Z,18.89
2017-03-30T10:23:33.593Z,18.96
2017-03-30T10:24:33.301Z,18.93
2017-03-30T10:25:33.635Z,18.9
2017-03-30T10:26:33.660Z,18.99
2017-03-30T10:27:33.678Z,19.02
2017-03-30T10:28:33.700Z,19.09
2017-03-30T10:29:33.722Z,19.12
2017-03-30T10:30:33.741Z,19.19
2017-03-30T10:31:33.768Z,19.16
2017-03-30T10:32:33.789Z,19.27
2017-03-30T10:33:33.811Z,19.24
2017-03-30T10:34:33.832Z,19.33
2017-03-30T10:35:33.852Z,19.4
2017-03-30T10:36:33.874Z,19.37
2017-03-30T10:37:33.894Z,19.37
2017-03-30T10:38:33.915Z,19.47
2017-03-30T10:39:33.935Z,19.55
2017-03-30T10:40:33.966Z,19.48
2017-03-30T10:41:34.002Z,19.47
2017-03-30T10:42:34.021Z,19.49
2017-03-30T10:43:34.027Z,19.55
2017-03-30T10:44:33.738Z,19.52
2017-03-30T10:45:33.776Z,19.49
2017-03-30T10:46:33.781Z,19.58
2017-03-30T10:47:34.113Z,19.55
2017-03-30T10:48:34.137Z,19.66
2017-03-30T10:49:34.156Z,19.64
2017-03-30T10:50:34.178Z,19.64
2017-03-30T10:51:34.203Z,19.63
2017-03-30T10:52:34.222Z,19.7
2017-03-30T10:53:34.252Z,19.7
2017-03-30T10:54:34.387Z,19.79
2017-03-30T10:55:34.398Z,19.94
2017-03-30T10:56:34.403Z,19.95
2017-03-30T10:57:34.435Z,20
2017-03-30T10:58:34.437Z,20.09
2017-03-30T10:59:34.375Z,20.14
2017-03-30T11:00:34.453Z,20.16
2017-03-30T11:01:34.147Z,20.16
2017-03-30T11:02:34.482Z,20.28
2017-03-30T11:03:34.480Z,20.28
2017-03-30T11:04:34.176Z,20.36
2017-03-30T11:05:34.620Z,20.5
2017-03-30T11:06:34.244Z,20.55
2017-03-30T11:07:34.558Z,20.55
2017-03-30T11:08:34.695Z,20.62
2017-03-30T11:09:34.695Z,20.67
2017-03-30T11:10:34.421Z,20.63
2017-03-30T11:11:34.881Z,20.69
2017-03-30T11:12:35.079Z,20.72
2017-03-30T11:13:34.893Z,20.77
2017-03-30T11:14:34.900Z,20.81
2017-03-30T11:15:34.910Z,20.84
2017-03-30T11:16:34.922Z,20.8
2017-03-30T11:17:34.925Z,20.8
2017-03-30T11:18:34.937Z,20.9
2017-03-30T11:19:35.012Z,20.78
2017-03-30T11:20:34.986Z,20.85
2017-03-30T11:21:34.989Z,20.92
2017-03-30T11:22:34.993Z,20.85
2017-03-30T11:23:35.002Z,20.92
2017-03-30T11:24:35.077Z,20.84
2017-03-30T11:25:35.062Z,20.87
2017-03-30T11:26:35.057Z,20.87
2017-03-30T11:27:35.091Z,20.85
2017-03-30T11:28:35.103Z,20.85
2017-03-30T11:29:35.153Z,20.96
2017-03-30T11:30:35.116Z,20.96
2017-03-30T11:31:35.116Z,20.95
2017-03-30T11:32:35.121Z,20.88
2017-03-30T11:33:35.143Z,20.9
2017-03-30T11:34:35.168Z,20.99
2017-03-30T11:35:35.195Z,20.97
2017-03-30T11:36:35.220Z,21
2017-03-30T11:37:35.243Z,21.03
2017-03-30T11:38:35.259Z,21.12
2017-03-30T11:39:35.280Z,21.15
2017-03-30T11:40:35.304Z,21.11
2017-03-30T11:41:35.324Z,21.25
2017-03-30T11:42:35.354Z,21.3
2017-03-30T11:43:35.374Z,21.29
2017-03-30T11:44:35.137Z,21.36
2017-03-30T11:45:35.452Z,21.39
2017-03-30T11:46:35.459Z,21.36
2017-03-30T11:47:35.482Z,21.4
2017-03-30T11:48:35.490Z,21.5
2017-03-30T11:49:35.523Z,21.6
2017-03-30T11:50:35.226Z,21.57
2017-03-30T11:51:35.256Z,21.66
2017-03-30T11:52:35.277Z,21.73
2017-03-30T11:53:35.614Z,21.77
2017-03-30T11:54:35.842Z,21.82
2017-03-30T11:55:35.858Z,21.83
2017-03-30T11:56:35.863Z,21.93
2017-03-30T11:57:35.558Z,21.95
2017-03-30T11:58:35.870Z,21.95
2017-03-30T11:59:36.081Z,22.06
2017-03-30T12:00:35.928Z,22.13
2017-03-30T12:01:35.925Z,22.15
2017-03-30T12:02:35.938Z,22.28
2017-03-30T12:03:35.948Z,22.35
2017-03-30T12:04:35.994Z,22.43
2017-03-30T12:05:35.965Z,22.47
2017-03-30T12:06:35.695Z,22.53
2017-03-30T12:07:36.041Z,22.44
2017-03-30T12:08:35.448Z,22.53
2017-03-30T12:09:36.046Z,22.55
2017-03-30T12:10:36.059Z,22.62
2017-03-30T12:11:36.065Z,22.69
2017-03-30T12:12:36.062Z,22.7
2017-03-30T12:13:36.074Z,22.87
2017-03-30T12:14:36.133Z,22.8
2017-03-30T12:15:36.124Z,22.78
2017-03-30T12:16:36.145Z,22.81
2017-03-30T12:17:36.174Z,22.85
2017-03-30T12:18:35.878Z,22.88
2017-03-30T12:19:36.215Z,22.96
2017-03-30T12:20:36.244Z,22.98
2017-03-30T12:21:36.262Z,22.96
2017-03-30T12:22:36.289Z,23.12
2017-03-30T12:23:36.314Z,23.1
2017-03-30T12:24:36.335Z,23.09
2017-03-30T12:25:36.364Z,23.15
2017-03-30T12:26:36.388Z,23.31
2017-03-30T12:27:36.409Z,23.28
2017-03-30T12:28:36.432Z,23.23
2017-03-30T12:29:36.454Z,23.27
2017-03-30T12:30:36.480Z,23.32
2017-03-30T12:31:36.502Z,23.37
2017-03-30T12:32:36.529Z,23.4
2017-03-30T12:33:36.553Z,23.47
2017-03-30T12:34:36.579Z,23.48
2017-03-30T12:35:36.283Z,23.55
2017-03-30T12:36:36.621Z,23.62
2017-03-30T12:37:36.648Z,23.62
2017-03-30T12:38:36.682Z,23.73
2017-03-30T12:39:36.695Z,23.69
2017-03-30T12:40:36.723Z,23.74
2017-03-30T12:41:36.747Z,23.76
2017-03-30T12:42:36.772Z,23.81
2017-03-30T12:43:36.792Z,23.86
2017-03-30T12:44:36.817Z,23.91
2017-03-30T12:45:36.527Z,23.87
2017-03-30T12:46:36.864Z,23.96
2017-03-30T12:47:36.891Z,24.05
2017-03-30T12:48:36.601Z,24.11
2017-03-30T12:49:36.946Z,24.05
2017-03-30T12:50:36.973Z,24.17
2017-03-30T12:51:36.989Z,24.23
2017-03-30T12:52:37.013Z,24.24
2017-03-30T12:53:37.038Z,24.26
2017-03-30T12:54:37.066Z,24.32
2017-03-30T12:55:37.088Z,24.38
2017-03-30T12:56:37.107Z,24.36